sensor_id;sensor_type;location;lat;lon;timestamp;temperature;humidity
18906;DHT22;9585;51.018;4.282;2023-12-07T00:00:39;1.70;99.90
18906;DHT22;9585;51.018;4.282;2023-12-07T00:03:08;1.80;99.90
18906;DHT22;9585;51.018;4.282;2023-12-07T00:05:35;1.80;99.90
18906;DHT22;9585;51.018;4.282;2023-12-07T00:08:03;1.80;99.90
18906;DHT22;9585;51.018;4.282;2023-12-07T00:10:30;1.80;99.90
18906;DHT22;9585;51.018;4.282;2023-12-07T00:12:58;1.90;99.90
18906;DHT22;9585;51.018;4.282;2023-12-07T00:15:25;1.90;99.90
18906;DHT22;9585;51.018;4.282;2023-12-07T00:17:53;1.90;99.90
18906;DHT22;9585;51.018;4.282;2023-12-07T00:20:22;1.80;99.90
18906;DHT22;9585;51.018;4.282;2023-12-07T00:22:49;1.70;99.90
18906;DHT22;9585;51.018;4.282;2023-12-07T00:25:17;1.80;99.90
18906;DHT22;9585;51.018;4.282;2023-12-07T00:27:44;1.90;99.90
18906;DHT22;9585;51.018;4.282;2023-12-07T00:30:12;1.80;99.90
18906;DHT22;9585;51.018;4.282;2023-12-07T00:32:40;1.80;99.90
18906;DHT22;9585;51.018;4.282;2023-12-07T00:35:09;1.80;99.90
18906;DHT22;9585;51.018;4.282;2023-12-07T00:37:39;1.80;99.90
18906;DHT22;9585;51.018;4.282;2023-12-07T00:40:07;1.80;99.90
18906;DHT22;9585;51.018;4.282;2023-12-07T00:42:35;1.80;99.90
18906;DHT22;9585;51.018;4.282;2023-12-07T00:45:02;1.80;99.90
18906;DHT22;9585;51.018;4.282;2023-12-07T00:47:30;1.70;99.90
18906;DHT22;9585;51.018;4.282;2023-12-07T00:49:58;1.60;99.90
18906;DHT22;9585;51.018;4.282;2023-12-07T00:52:25;1.70;99.90
18906;DHT22;9585;51.018;4.282;2023-12-07T00:54:55;1.70;99.90
18906;DHT22;9585;51.018;4.282;2023-12-07T00:57:23;1.70;99.90
18906;DHT22;9585;51.018;4.282;2023-12-07T00:59:50;1.70;99.90
18906;DHT22;9585;51.018;4.282;2023-12-07T01:02:18;1.70;99.90
18906;DHT22;9585;51.018;4.282;2023-12-07T01:04:46;1.70;99.90
18906;DHT22;9585;51.018;4.282;2023-12-07T01:07:13;1.70;99.90
18906;DHT22;9585;51.018;4.282;2023-12-07T01:09:41;1.80;99.90
18906;DHT22;9585;51.018;4.282;2023-12-07T01:12:10;1.80;99.90
18906;DHT22;9585;51.018;4.282;2023-12-07T01:14:38;1.80;99.90
18906;DHT22;9585;51.018;4.282;2023-12-07T01:17:06;1.80;99.90
18906;DHT22;9585;51.018;4.282;2023-12-07T01:19:33;1.80;99.90
18906;DHT22;9585;51.018;4.282;2023-12-07T01:22:01;1.80;99.90
18906;DHT22;9585;51.018;4.282;2023-12-07T01:24:29;1.90;99.90
18906;DHT22;9585;51.018;4.282;2023-12-07T01:26:58;1.90;99.90
18906;DHT22;9585;51.018;4.282;2023-12-07T01:29:27;1.90;99.90
18906;DHT22;9585;51.018;4.282;2023-12-07T01:31:54;2.00;99.90
18906;DHT22;9585;51.018;4.282;2023-12-07T01:34:22;2.00;99.90
18906;DHT22;9585;51.018;4.282;2023-12-07T01:36:49;2.00;99.90
18906;DHT22;9585;51.018;4.282;2023-12-07T01:39:16;2.10;99.90
18906;DHT22;9585;51.018;4.282;2023-12-07T01:41:44;2.10;99.90
18906;DHT22;9585;51.018;4.282;2023-12-07T01:44:12;2.20;99.90
18906;DHT22;9585;51.018;4.282;2023-12-07T01:46:41;2.20;99.90
18906;DHT22;9585;51.018;4.282;2023-12-07T01:49:08;2.10;99.90
18906;DHT22;9585;51.018;4.282;2023-12-07T01:51:36;2.10;99.90
18906;DHT22;9585;51.018;4.282;2023-12-07T01:54:04;2.10;99.90
18906;DHT22;9585;51.018;4.282;2023-12-07T01:56:32;2.10;99.90
18906;DHT22;9585;51.018;4.282;2023-12-07T01:59:00;2.10;99.90
18906;DHT22;9585;51.018;4.282;2023-12-07T02:01:28;2.20;99.90
18906;DHT22;9585;51.018;4.282;2023-12-07T02:03:57;2.20;99.90
18906;DHT22;9585;51.018;4.282;2023-12-07T02:06:25;2.20;99.90
18906;DHT22;9585;51.018;4.282;2023-12-07T02:08:53;2.30;99.90
18906;DHT22;9585;51.018;4.282;2023-12-07T02:11:20;2.20;99.90
18906;DHT22;9585;51.018;4.282;2023-12-07T02:13:48;2.30;99.90
18906;DHT22;9585;51.018;4.282;2023-12-07T02:16:22;2.30;99.90
18906;DHT22;9585;51.018;4.282;2023-12-07T02:18:54;2.30;99.90
18906;DHT22;9585;51.018;4.282;2023-12-07T02:21:30;2.30;99.90
18906;DHT22;9585;51.018;4.282;2023-12-07T02:24:03;2.40;99.90
18906;DHT22;9585;51.018;4.282;2023-12-07T02:26:35;2.40;99.90
18906;DHT22;9585;51.018;4.282;2023-12-07T02:29:03;2.40;99.90
18906;DHT22;9585;51.018;4.282;2023-12-07T02:31:31;2.30;99.90
18906;DHT22;9585;51.018;4.282;2023-12-07T02:33:59;2.30;99.90
18906;DHT22;9585;51.018;4.282;2023-12-07T02:36:28;2.20;99.90
18906;DHT22;9585;51.018;4.282;2023-12-07T02:38:59;2.30;99.90
18906;DHT22;9585;51.018;4.282;2023-12-07T02:41:29;2.30;99.90
18906;DHT22;9585;51.018;4.282;2023-12-07T02:43:59;2.30;99.90
18906;DHT22;9585;51.018;4.282;2023-12-07T02:46:28;2.40;99.90
18906;DHT22;9585;51.018;4.282;2023-12-07T02:48:57;2.40;99.90
18906;DHT22;9585;51.018;4.282;2023-12-07T02:51:25;2.30;99.90
18906;DHT22;9585;51.018;4.282;2023-12-07T02:53:53;2.40;99.90
18906;DHT22;9585;51.018;4.282;2023-12-07T02:56:20;2.40;99.90
18906;DHT22;9585;51.018;4.282;2023-12-07T02:58:48;2.40;99.90
18906;DHT22;9585;51.018;4.282;2023-12-07T03:01:17;2.50;99.90
18906;DHT22;9585;51.018;4.282;2023-12-07T03:03:44;2.30;99.90
18906;DHT22;9585;51.018;4.282;2023-12-07T03:06:12;2.30;99.90
18906;DHT22;9585;51.018;4.282;2023-12-07T03:08:41;2.30;99.90
18906;DHT22;9585;51.018;4.282;2023-12-07T03:11:09;2.30;99.90
18906;DHT22;9585;51.018;4.282;2023-12-07T03:13:38;2.20;99.90
18906;DHT22;9585;51.018;4.282;2023-12-07T03:16:08;2.20;99.90
18906;DHT22;9585;51.018;4.282;2023-12-07T03:18:38;2.20;99.90
18906;DHT22;9585;51.018;4.282;2023-12-07T03:21:05;2.20;99.90
18906;DHT22;9585;51.018;4.282;2023-12-07T03:23:33;2.20;99.90
18906;DHT22;9585;51.018;4.282;2023-12-07T03:26:01;2.10;99.90
18906;DHT22;9585;51.018;4.282;2023-12-07T03:28:29;2.00;99.90
18906;DHT22;9585;51.018;4.282;2023-12-07T03:30:56;1.90;99.90
18906;DHT22;9585;51.018;4.282;2023-12-07T03:33:24;1.90;99.90
18906;DHT22;9585;51.018;4.282;2023-12-07T03:35:53;2.00;99.90
18906;DHT22;9585;51.018;4.282;2023-12-07T03:38:21;1.90;99.90
18906;DHT22;9585;51.018;4.282;2023-12-07T03:40:49;2.00;99.90
18906;DHT22;9585;51.018;4.282;2023-12-07T03:43:17;2.10;99.90
18906;DHT22;9585;51.018;4.282;2023-12-07T03:45:45;2.20;99.90
18906;DHT22;9585;51.018;4.282;2023-12-07T03:48:13;2.20;99.90
18906;DHT22;9585;51.018;4.282;2023-12-07T03:50:41;2.20;99.90
18906;DHT22;9585;51.018;4.282;2023-12-07T03:53:10;2.30;99.90
18906;DHT22;9585;51.018;4.282;2023-12-07T03:55:38;2.40;99.90
18906;DHT22;9585;51.018;4.282;2023-12-07T03:58:06;2.20;99.90
18906;DHT22;9585;51.018;4.282;2023-12-07T04:00:34;2.10;99.90
18906;DHT22;9585;51.018;4.282;2023-12-07T04:03:01;2.20;99.90
18906;DHT22;9585;51.018;4.282;2023-12-07T04:05:29;2.20;99.90
18906;DHT22;9585;51.018;4.282;2023-12-07T04:07:57;2.30;99.90
18906;DHT22;9585;51.018;4.282;2023-12-07T04:10:26;2.30;99.90
18906;DHT22;9585;51.018;4.282;2023-12-07T04:12:54;2.30;99.90
18906;DHT22;9585;51.018;4.282;2023-12-07T04:15:22;2.20;99.90
18906;DHT22;9585;51.018;4.282;2023-12-07T04:17:50;2.30;99.90
18906;DHT22;9585;51.018;4.282;2023-12-07T04:20:19;2.20;99.90
18906;DHT22;9585;51.018;4.282;2023-12-07T04:22:46;2.20;99.90
18906;DHT22;9585;51.018;4.282;2023-12-07T04:25:14;2.20;99.90
18906;DHT22;9585;51.018;4.282;2023-12-07T04:27:43;2.20;99.90
18906;DHT22;9585;51.018;4.282;2023-12-07T04:30:12;2.20;99.90
18906;DHT22;9585;51.018;4.282;2023-12-07T04:32:40;2.30;99.90
18906;DHT22;9585;51.018;4.282;2023-12-07T04:35:08;2.20;99.90
18906;DHT22;9585;51.018;4.282;2023-12-07T04:37:36;2.30;99.90
18906;DHT22;9585;51.018;4.282;2023-12-07T04:40:07;2.30;99.90
18906;DHT22;9585;51.018;4.282;2023-12-07T04:42:36;2.20;99.90
18906;DHT22;9585;51.018;4.282;2023-12-07T04:45:06;2.20;99.90
18906;DHT22;9585;51.018;4.282;2023-12-07T04:47:34;2.20;99.90
18906;DHT22;9585;51.018;4.282;2023-12-07T04:50:01;2.10;99.90
18906;DHT22;9585;51.018;4.282;2023-12-07T04:52:29;2.10;99.90
18906;DHT22;9585;51.018;4.282;2023-12-07T04:54:57;2.10;99.90
18906;DHT22;9585;51.018;4.282;2023-12-07T04:57:24;2.10;99.90
18906;DHT22;9585;51.018;4.282;2023-12-07T04:59:51;2.10;99.90
18906;DHT22;9585;51.018;4.282;2023-12-07T05:02:21;2.10;99.90
18906;DHT22;9585;51.018;4.282;2023-12-07T05:04:48;2.00;99.90
18906;DHT22;9585;51.018;4.282;2023-12-07T05:07:16;2.20;99.90
18906;DHT22;9585;51.018;4.282;2023-12-07T05:09:43;2.20;99.90
18906;DHT22;9585;51.018;4.282;2023-12-07T05:12:11;2.20;99.90
18906;DHT22;9585;51.018;4.282;2023-12-07T05:14:39;2.30;99.90
18906;DHT22;9585;51.018;4.282;2023-12-07T05:17:06;2.20;99.90
18906;DHT22;9585;51.018;4.282;2023-12-07T05:19:35;2.20;99.90
18906;DHT22;9585;51.018;4.282;2023-12-07T05:22:03;2.10;99.90
18906;DHT22;9585;51.018;4.282;2023-12-07T05:24:31;2.10;99.90
18906;DHT22;9585;51.018;4.282;2023-12-07T05:27:00;2.10;99.90
18906;DHT22;9585;51.018;4.282;2023-12-07T05:29:32;2.00;99.90
18906;DHT22;9585;51.018;4.282;2023-12-07T05:31:59;2.00;99.90
18906;DHT22;9585;51.018;4.282;2023-12-07T05:34:27;1.90;99.90
18906;DHT22;9585;51.018;4.282;2023-12-07T05:36:56;1.80;99.90
18906;DHT22;9585;51.018;4.282;2023-12-07T05:39:24;1.90;99.90
18906;DHT22;9585;51.018;4.282;2023-12-07T05:41:51;2.00;99.90
18906;DHT22;9585;51.018;4.282;2023-12-07T05:44:19;2.00;99.90
18906;DHT22;9585;51.018;4.282;2023-12-07T05:46:48;2.00;99.90
18906;DHT22;9585;51.018;4.282;2023-12-07T05:49:16;1.90;99.90
18906;DHT22;9585;51.018;4.282;2023-12-07T05:51:44;1.90;99.90
18906;DHT22;9585;51.018;4.282;2023-12-07T05:54:13;1.80;99.90
18906;DHT22;9585;51.018;4.282;2023-12-07T05:56:41;1.80;99.90
18906;DHT22;9585;51.018;4.282;2023-12-07T05:59:09;1.70;99.90
18906;DHT22;9585;51.018;4.282;2023-12-07T06:01:42;1.80;99.90
18906;DHT22;9585;51.018;4.282;2023-12-07T06:04:12;1.70;99.90
18906;DHT22;9585;51.018;4.282;2023-12-07T06:06:41;1.70;99.90
18906;DHT22;9585;51.018;4.282;2023-12-07T06:09:09;1.70;99.90
18906;DHT22;9585;51.018;4.282;2023-12-07T06:11:39;1.70;99.90
18906;DHT22;9585;51.018;4.282;2023-12-07T06:14:06;1.80;99.90
18906;DHT22;9585;51.018;4.282;2023-12-07T06:16:34;1.90;99.90
18906;DHT22;9585;51.018;4.282;2023-12-07T06:19:17;1.90;99.90
18906;DHT22;9585;51.018;4.282;2023-12-07T06:21:52;1.80;99.90
18906;DHT22;9585;51.018;4.282;2023-12-07T06:24:28;1.70;99.90
18906;DHT22;9585;51.018;4.282;2023-12-07T06:27:01;1.70;99.90
18906;DHT22;9585;51.018;4.282;2023-12-07T06:29:47;1.70;99.90
18906;DHT22;9585;51.018;4.282;2023-12-07T06:32:15;1.60;99.90
18906;DHT22;9585;51.018;4.282;2023-12-07T06:34:43;1.60;99.90
18906;DHT22;9585;51.018;4.282;2023-12-07T06:37:10;1.60;99.90
18906;DHT22;9585;51.018;4.282;2023-12-07T06:39:39;1.60;99.90
18906;DHT22;9585;51.018;4.282;2023-12-07T06:42:08;1.50;99.90
18906;DHT22;9585;51.018;4.282;2023-12-07T06:44:35;1.40;99.90
18906;DHT22;9585;51.018;4.282;2023-12-07T06:47:03;1.40;99.90
18906;DHT22;9585;51.018;4.282;2023-12-07T06:49:31;1.40;99.90
18906;DHT22;9585;51.018;4.282;2023-12-07T06:51:58;1.40;99.90
18906;DHT22;9585;51.018;4.282;2023-12-07T06:54:26;1.30;99.90
18906;DHT22;9585;51.018;4.282;2023-12-07T06:56:54;1.30;99.90
18906;DHT22;9585;51.018;4.282;2023-12-07T06:59:23;1.40;99.90
18906;DHT22;9585;51.018;4.282;2023-12-07T07:01:50;1.30;99.90
18906;DHT22;9585;51.018;4.282;2023-12-07T07:04:18;1.20;99.90
18906;DHT22;9585;51.018;4.282;2023-12-07T07:06:45;1.20;99.90
18906;DHT22;9585;51.018;4.282;2023-12-07T07:09:13;1.10;99.90
18906;DHT22;9585;51.018;4.282;2023-12-07T07:11:41;1.00;99.90
18906;DHT22;9585;51.018;4.282;2023-12-07T07:14:10;1.00;99.90
18906;DHT22;9585;51.018;4.282;2023-12-07T07:16:38;0.90;99.90
18906;DHT22;9585;51.018;4.282;2023-12-07T07:19:06;1.00;99.90
18906;DHT22;9585;51.018;4.282;2023-12-07T07:21:34;1.10;99.90
18906;DHT22;9585;51.018;4.282;2023-12-07T07:24:01;1.10;99.90
18906;DHT22;9585;51.018;4.282;2023-12-07T07:26:29;1.10;99.90
18906;DHT22;9585;51.018;4.282;2023-12-07T07:28:57;1.20;99.90
18906;DHT22;9585;51.018;4.282;2023-12-07T07:31:25;1.30;99.90
18906;DHT22;9585;51.018;4.282;2023-12-07T07:33:54;1.30;99.90
18906;DHT22;9585;51.018;4.282;2023-12-07T07:36:21;1.30;99.90
18906;DHT22;9585;51.018;4.282;2023-12-07T07:38:49;1.30;99.90
18906;DHT22;9585;51.018;4.282;2023-12-07T07:41:16;1.20;99.90
18906;DHT22;9585;51.018;4.282;2023-12-07T07:43:44;1.10;99.90
18906;DHT22;9585;51.018;4.282;2023-12-07T07:46:11;1.10;99.90
18906;DHT22;9585;51.018;4.282;2023-12-07T07:48:38;1.00;99.90
18906;DHT22;9585;51.018;4.282;2023-12-07T07:51:07;1.00;99.90
18906;DHT22;9585;51.018;4.282;2023-12-07T07:53:35;1.00;99.90
18906;DHT22;9585;51.018;4.282;2023-12-07T07:56:03;0.90;99.90
18906;DHT22;9585;51.018;4.282;2023-12-07T07:58:30;0.90;99.90
18906;DHT22;9585;51.018;4.282;2023-12-07T08:00:58;0.90;99.90
18906;DHT22;9585;51.018;4.282;2023-12-07T08:03:25;0.90;99.90
18906;DHT22;9585;51.018;4.282;2023-12-07T08:05:53;0.80;99.90
18906;DHT22;9585;51.018;4.282;2023-12-07T08:08:22;0.80;99.90
18906;DHT22;9585;51.018;4.282;2023-12-07T08:10:52;0.70;99.90
18906;DHT22;9585;51.018;4.282;2023-12-07T08:13:19;0.80;99.90
18906;DHT22;9585;51.018;4.282;2023-12-07T08:15:49;0.70;99.90
18906;DHT22;9585;51.018;4.282;2023-12-07T08:18:16;0.70;99.90
18906;DHT22;9585;51.018;4.282;2023-12-07T08:20:44;0.70;99.90
18906;DHT22;9585;51.018;4.282;2023-12-07T08:23:12;0.70;99.90
18906;DHT22;9585;51.018;4.282;2023-12-07T08:25:41;0.80;99.90
18906;DHT22;9585;51.018;4.282;2023-12-07T08:28:09;0.80;99.90
18906;DHT22;9585;51.018;4.282;2023-12-07T08:30:37;0.80;99.90
18906;DHT22;9585;51.018;4.282;2023-12-07T08:33:04;0.90;99.90
18906;DHT22;9585;51.018;4.282;2023-12-07T08:35:32;0.90;99.90
18906;DHT22;9585;51.018;4.282;2023-12-07T08:37:59;0.90;99.90
18906;DHT22;9585;51.018;4.282;2023-12-07T08:40:27;1.00;99.90
18906;DHT22;9585;51.018;4.282;2023-12-07T08:42:56;1.10;99.90
18906;DHT22;9585;51.018;4.282;2023-12-07T08:45:23;1.10;99.90
18906;DHT22;9585;51.018;4.282;2023-12-07T08:47:51;1.10;99.90
18906;DHT22;9585;51.018;4.282;2023-12-07T08:50:18;1.10;99.90
18906;DHT22;9585;51.018;4.282;2023-12-07T08:52:46;1.10;99.90
18906;DHT22;9585;51.018;4.282;2023-12-07T08:55:13;1.10;99.90
18906;DHT22;9585;51.018;4.282;2023-12-07T08:57:42;1.20;99.90
18906;DHT22;9585;51.018;4.282;2023-12-07T09:00:12;1.20;99.90
18906;DHT22;9585;51.018;4.282;2023-12-07T09:02:40;1.20;99.90
18906;DHT22;9585;51.018;4.282;2023-12-07T09:05:08;1.20;99.90
18906;DHT22;9585;51.018;4.282;2023-12-07T09:07:36;1.20;99.90
18906;DHT22;9585;51.018;4.282;2023-12-07T09:10:04;1.40;99.90
18906;DHT22;9585;51.018;4.282;2023-12-07T09:12:32;1.40;99.90
18906;DHT22;9585;51.018;4.282;2023-12-07T09:15:01;1.50;99.90
18906;DHT22;9585;51.018;4.282;2023-12-07T09:17:31;1.70;99.90
18906;DHT22;9585;51.018;4.282;2023-12-07T09:19:58;1.90;99.90
18906;DHT22;9585;51.018;4.282;2023-12-07T09:22:27;1.90;99.90
18906;DHT22;9585;51.018;4.282;2023-12-07T09:24:54;2.00;99.90
18906;DHT22;9585;51.018;4.282;2023-12-07T09:27:22;2.20;99.90
18906;DHT22;9585;51.018;4.282;2023-12-07T09:29:50;2.20;99.90
18906;DHT22;9585;51.018;4.282;2023-12-07T09:32:18;2.10;99.90
18906;DHT22;9585;51.018;4.282;2023-12-07T09:34:47;2.00;99.90
18906;DHT22;9585;51.018;4.282;2023-12-07T09:37:17;2.00;99.90
18906;DHT22;9585;51.018;4.282;2023-12-07T09:39:45;2.00;99.90
18906;DHT22;9585;51.018;4.282;2023-12-07T09:42:12;2.00;99.90
18906;DHT22;9585;51.018;4.282;2023-12-07T09:44:40;2.10;99.90
18906;DHT22;9585;51.018;4.282;2023-12-07T09:47:07;2.20;99.90
18906;DHT22;9585;51.018;4.282;2023-12-07T09:49:35;2.30;99.90
18906;DHT22;9585;51.018;4.282;2023-12-07T09:52:06;2.40;99.90
18906;DHT22;9585;51.018;4.282;2023-12-07T09:54:34;2.60;99.90
18906;DHT22;9585;51.018;4.282;2023-12-07T09:57:03;2.60;99.90
18906;DHT22;9585;51.018;4.282;2023-12-07T09:59:35;2.60;99.90
18906;DHT22;9585;51.018;4.282;2023-12-07T10:02:03;2.60;99.90
18906;DHT22;9585;51.018;4.282;2023-12-07T10:04:31;2.70;99.90
18906;DHT22;9585;51.018;4.282;2023-12-07T10:06:58;2.80;99.90
18906;DHT22;9585;51.018;4.282;2023-12-07T10:09:27;2.80;99.90
18906;DHT22;9585;51.018;4.282;2023-12-07T10:12:02;2.80;99.90
18906;DHT22;9585;51.018;4.282;2023-12-07T10:14:30;2.90;99.90
18906;DHT22;9585;51.018;4.282;2023-12-07T10:16:59;3.10;99.90
18906;DHT22;9585;51.018;4.282;2023-12-07T10:19:26;3.20;99.90
18906;DHT22;9585;51.018;4.282;2023-12-07T10:21:54;3.30;99.90
18906;DHT22;9585;51.018;4.282;2023-12-07T10:24:22;3.30;99.90
18906;DHT22;9585;51.018;4.282;2023-12-07T10:26:52;3.40;99.90
18906;DHT22;9585;51.018;4.282;2023-12-07T10:29:20;3.40;99.90
18906;DHT22;9585;51.018;4.282;2023-12-07T10:31:49;3.40;99.90
18906;DHT22;9585;51.018;4.282;2023-12-07T10:34:18;3.40;99.90
18906;DHT22;9585;51.018;4.282;2023-12-07T10:36:46;3.40;99.90
18906;DHT22;9585;51.018;4.282;2023-12-07T10:39:15;3.40;99.90
18906;DHT22;9585;51.018;4.282;2023-12-07T10:41:43;3.60;99.90
18906;DHT22;9585;51.018;4.282;2023-12-07T10:44:14;3.60;99.90
18906;DHT22;9585;51.018;4.282;2023-12-07T10:46:43;3.80;99.90
18906;DHT22;9585;51.018;4.282;2023-12-07T10:49:21;3.80;99.90
18906;DHT22;9585;51.018;4.282;2023-12-07T10:52:00;3.80;99.90
18906;DHT22;9585;51.018;4.282;2023-12-07T10:54:33;4.00;99.90
18906;DHT22;9585;51.018;4.282;2023-12-07T10:57:03;3.90;99.90
18906;DHT22;9585;51.018;4.282;2023-12-07T10:59:35;4.00;99.90
18906;DHT22;9585;51.018;4.282;2023-12-07T11:02:06;3.90;99.90
18906;DHT22;9585;51.018;4.282;2023-12-07T11:04:37;3.90;99.90
18906;DHT22;9585;51.018;4.282;2023-12-07T11:07:09;3.90;99.90
18906;DHT22;9585;51.018;4.282;2023-12-07T11:09:51;3.80;99.90
18906;DHT22;9585;51.018;4.282;2023-12-07T11:12:25;3.90;99.90
18906;DHT22;9585;51.018;4.282;2023-12-07T11:14:57;3.90;99.90
18906;DHT22;9585;51.018;4.282;2023-12-07T11:17:25;4.00;99.90
18906;DHT22;9585;51.018;4.282;2023-12-07T11:19:54;4.00;99.90
18906;DHT22;9585;51.018;4.282;2023-12-07T11:22:23;4.10;99.90
18906;DHT22;9585;51.018;4.282;2023-12-07T11:24:53;4.00;99.90
18906;DHT22;9585;51.018;4.282;2023-12-07T11:27:21;4.00;99.90
18906;DHT22;9585;51.018;4.282;2023-12-07T11:29:49;4.10;99.90
18906;DHT22;9585;51.018;4.282;2023-12-07T11:32:20;4.20;99.90
18906;DHT22;9585;51.018;4.282;2023-12-07T11:34:47;4.30;99.90
18906;DHT22;9585;51.018;4.282;2023-12-07T11:37:15;4.30;99.90
18906;DHT22;9585;51.018;4.282;2023-12-07T11:39:43;4.30;99.90
18906;DHT22;9585;51.018;4.282;2023-12-07T11:42:14;4.40;99.90
18906;DHT22;9585;51.018;4.282;2023-12-07T11:44:43;4.50;99.90
18906;DHT22;9585;51.018;4.282;2023-12-07T11:47:16;4.60;99.90
18906;DHT22;9585;51.018;4.282;2023-12-07T11:49:46;4.50;99.90
18906;DHT22;9585;51.018;4.282;2023-12-07T11:52:14;4.50;99.90
18906;DHT22;9585;51.018;4.282;2023-12-07T11:54:45;4.40;99.90
18906;DHT22;9585;51.018;4.282;2023-12-07T11:57:13;4.40;99.90
18906;DHT22;9585;51.018;4.282;2023-12-07T11:59:41;4.30;99.90
18906;DHT22;9585;51.018;4.282;2023-12-07T12:02:10;4.10;99.90
18906;DHT22;9585;51.018;4.282;2023-12-07T12:04:38;4.20;99.90
18906;DHT22;9585;51.018;4.282;2023-12-07T12:07:08;4.10;99.90
18906;DHT22;9585;51.018;4.282;2023-12-07T12:09:35;4.10;99.90
18906;DHT22;9585;51.018;4.282;2023-12-07T12:12:03;4.10;99.90
18906;DHT22;9585;51.018;4.282;2023-12-07T12:14:31;4.00;99.90
18906;DHT22;9585;51.018;4.282;2023-12-07T12:16:58;4.10;99.90
18906;DHT22;9585;51.018;4.282;2023-12-07T12:19:26;4.20;99.90
18906;DHT22;9585;51.018;4.282;2023-12-07T12:21:55;4.20;99.90
18906;DHT22;9585;51.018;4.282;2023-12-07T12:24:25;4.00;99.90
18906;DHT22;9585;51.018;4.282;2023-12-07T12:26:53;3.70;99.90
18906;DHT22;9585;51.018;4.282;2023-12-07T12:29:21;3.70;99.90
18906;DHT22;9585;51.018;4.282;2023-12-07T12:31:49;3.60;99.90
18906;DHT22;9585;51.018;4.282;2023-12-07T12:34:21;3.60;99.90
18906;DHT22;9585;51.018;4.282;2023-12-07T12:36:48;3.70;99.90
18906;DHT22;9585;51.018;4.282;2023-12-07T12:39:16;3.60;99.90
18906;DHT22;9585;51.018;4.282;2023-12-07T12:41:44;3.60;99.90
18906;DHT22;9585;51.018;4.282;2023-12-07T12:44:12;3.60;99.90
18906;DHT22;9585;51.018;4.282;2023-12-07T12:46:40;3.60;99.90
18906;DHT22;9585;51.018;4.282;2023-12-07T12:49:07;3.60;99.90
18906;DHT22;9585;51.018;4.282;2023-12-07T12:51:38;3.80;99.90
18906;DHT22;9585;51.018;4.282;2023-12-07T12:54:05;3.70;99.90
18906;DHT22;9585;51.018;4.282;2023-12-07T12:56:33;3.80;99.90
18906;DHT22;9585;51.018;4.282;2023-12-07T12:59:02;3.70;99.90
18906;DHT22;9585;51.018;4.282;2023-12-07T13:01:29;3.70;99.90
18906;DHT22;9585;51.018;4.282;2023-12-07T13:03:57;3.70;99.90
18906;DHT22;9585;51.018;4.282;2023-12-07T13:06:25;3.80;99.90
18906;DHT22;9585;51.018;4.282;2023-12-07T13:08:52;3.80;99.90
18906;DHT22;9585;51.018;4.282;2023-12-07T13:11:20;3.90;99.90
18906;DHT22;9585;51.018;4.282;2023-12-07T13:13:48;3.90;99.90
18906;DHT22;9585;51.018;4.282;2023-12-07T13:16:17;3.90;99.90
18906;DHT22;9585;51.018;4.282;2023-12-07T13:18:47;4.00;99.90
18906;DHT22;9585;51.018;4.282;2023-12-07T13:21:14;4.10;99.90
18906;DHT22;9585;51.018;4.282;2023-12-07T13:23:42;4.10;99.90
18906;DHT22;9585;51.018;4.282;2023-12-07T13:26:11;4.10;99.90
18906;DHT22;9585;51.018;4.282;2023-12-07T13:28:39;3.90;99.90
18906;DHT22;9585;51.018;4.282;2023-12-07T13:31:07;3.90;99.90
18906;DHT22;9585;51.018;4.282;2023-12-07T13:33:36;3.80;99.90
18906;DHT22;9585;51.018;4.282;2023-12-07T13:36:05;3.70;99.90
18906;DHT22;9585;51.018;4.282;2023-12-07T13:38:32;3.70;99.90
18906;DHT22;9585;51.018;4.282;2023-12-07T13:41:03;3.70;99.90
18906;DHT22;9585;51.018;4.282;2023-12-07T13:43:31;3.70;99.90
18906;DHT22;9585;51.018;4.282;2023-12-07T13:45:59;3.70;99.90
18906;DHT22;9585;51.018;4.282;2023-12-07T13:48:27;3.90;99.90
18906;DHT22;9585;51.018;4.282;2023-12-07T13:50:57;3.90;99.90
18906;DHT22;9585;51.018;4.282;2023-12-07T13:53:24;3.80;99.90
18906;DHT22;9585;51.018;4.282;2023-12-07T13:55:52;3.90;99.90
18906;DHT22;9585;51.018;4.282;2023-12-07T13:58:19;3.80;99.90
18906;DHT22;9585;51.018;4.282;2023-12-07T14:00:49;3.90;99.90
18906;DHT22;9585;51.018;4.282;2023-12-07T14:03:17;4.00;99.90
18906;DHT22;9585;51.018;4.282;2023-12-07T14:05:44;4.10;99.90
18906;DHT22;9585;51.018;4.282;2023-12-07T14:08:13;4.10;99.90
18906;DHT22;9585;51.018;4.282;2023-12-07T14:10:41;4.00;99.90
18906;DHT22;9585;51.018;4.282;2023-12-07T14:13:08;4.00;99.90
18906;DHT22;9585;51.018;4.282;2023-12-07T14:15:36;4.00;99.90
18906;DHT22;9585;51.018;4.282;2023-12-07T14:18:03;3.90;99.90
18906;DHT22;9585;51.018;4.282;2023-12-07T14:20:31;3.80;99.90
18906;DHT22;9585;51.018;4.282;2023-12-07T14:22:58;3.80;99.90
18906;DHT22;9585;51.018;4.282;2023-12-07T14:25:31;3.80;99.90
18906;DHT22;9585;51.018;4.282;2023-12-07T14:27:59;3.80;99.90
18906;DHT22;9585;51.018;4.282;2023-12-07T14:30:26;3.70;99.90
18906;DHT22;9585;51.018;4.282;2023-12-07T14:32:54;3.70;99.90
18906;DHT22;9585;51.018;4.282;2023-12-07T14:35:22;3.60;99.90
18906;DHT22;9585;51.018;4.282;2023-12-07T14:37:49;3.60;99.90
18906;DHT22;9585;51.018;4.282;2023-12-07T14:40:17;3.40;99.90
18906;DHT22;9585;51.018;4.282;2023-12-07T14:42:46;3.30;99.90
18906;DHT22;9585;51.018;4.282;2023-12-07T14:45:13;3.20;99.90
18906;DHT22;9585;51.018;4.282;2023-12-07T14:47:41;3.10;99.90
18906;DHT22;9585;51.018;4.282;2023-12-07T14:50:09;3.20;99.90
18906;DHT22;9585;51.018;4.282;2023-12-07T14:52:37;3.00;99.90
18906;DHT22;9585;51.018;4.282;2023-12-07T14:55:05;2.90;99.90
18906;DHT22;9585;51.018;4.282;2023-12-07T14:57:34;2.90;99.90
18906;DHT22;9585;51.018;4.282;2023-12-07T15:00:05;2.90;99.90
18906;DHT22;9585;51.018;4.282;2023-12-07T15:02:33;2.90;99.90
18906;DHT22;9585;51.018;4.282;2023-12-07T15:05:00;2.80;99.90
18906;DHT22;9585;51.018;4.282;2023-12-07T15:07:28;2.80;99.90
18906;DHT22;9585;51.018;4.282;2023-12-07T15:09:56;2.70;99.90
18906;DHT22;9585;51.018;4.282;2023-12-07T15:12:23;2.70;99.90
18906;DHT22;9585;51.018;4.282;2023-12-07T15:14:51;2.60;99.90
18906;DHT22;9585;51.018;4.282;2023-12-07T15:17:21;2.60;99.90
18906;DHT22;9585;51.018;4.282;2023-12-07T15:19:49;2.60;99.90
18906;DHT22;9585;51.018;4.282;2023-12-07T15:22:16;2.60;99.90
18906;DHT22;9585;51.018;4.282;2023-12-07T15:24:44;2.60;99.90
18906;DHT22;9585;51.018;4.282;2023-12-07T15:27:12;2.50;99.90
18906;DHT22;9585;51.018;4.282;2023-12-07T15:29:40;2.50;99.90
18906;DHT22;9585;51.018;4.282;2023-12-07T15:32:08;2.50;99.90
18906;DHT22;9585;51.018;4.282;2023-12-07T15:34:37;2.40;99.90
18906;DHT22;9585;51.018;4.282;2023-12-07T15:37:06;2.50;99.90
18906;DHT22;9585;51.018;4.282;2023-12-07T15:39:36;2.40;99.90
18906;DHT22;9585;51.018;4.282;2023-12-07T15:42:03;2.40;99.90
18906;DHT22;9585;51.018;4.282;2023-12-07T15:44:31;2.40;99.90
18906;DHT22;9585;51.018;4.282;2023-12-07T15:46:59;2.40;99.90
18906;DHT22;9585;51.018;4.282;2023-12-07T15:49:26;2.40;99.90
18906;DHT22;9585;51.018;4.282;2023-12-07T15:51:56;2.30;99.90
18906;DHT22;9585;51.018;4.282;2023-12-07T15:54:23;2.40;99.90
18906;DHT22;9585;51.018;4.282;2023-12-07T15:56:50;2.30;99.90
18906;DHT22;9585;51.018;4.282;2023-12-07T15:59:18;2.30;99.90
18906;DHT22;9585;51.018;4.282;2023-12-07T16:01:45;2.30;99.90
18906;DHT22;9585;51.018;4.282;2023-12-07T16:04:13;2.30;99.90
18906;DHT22;9585;51.018;4.282;2023-12-07T16:06:41;2.30;99.90
18906;DHT22;9585;51.018;4.282;2023-12-07T16:09:10;2.30;99.90